Time;durP1;ratioP1;P1;durP2;ratioP2;P2;SDS_P1;SDS_P2;PMS_P1;PMS_P2;Temp;Humidity;BMP_temperature;BMP_pressure;BME280_temperature;BME280_humidity;BME280_pressure;Samples;Min_cycle;Max_cycle;Signal;HPM_P1;HPM_P2
2022/01/22 00:02:03;;;;;;;2.53;2.10;;;;;;;4.83;100.00;101398.59;5088276;28;20772;-78
2022/01/22 00:04:31;;;;;;;1.93;1.77;;;;;;;4.80;100.00;101395.97;5088156;28;20219;-77
2022/01/22 00:06:58;;;;;;;2.17;2.03;;;;;;;4.81;100.00;101402.00;5088877;28;20258;-78
2022/01/22 00:09:28;;;;;;;2.00;1.90;;;;;;;4.81;100.00;101389.06;5085252;28;20235;-77
2022/01/22 00:11:55;;;;;;;4.70;3.10;;;;;;;4.80;100.00;101395.06;5086928;28;20710;-77
2022/01/22 00:14:24;;;;;;;2.73;2.53;;;;;;;4.76;100.00;101387.25;5089172;28;20261;-76
2022/01/22 00:16:51;;;;;;;2.50;2.30;;;;;;;4.84;100.00;101389.13;5093046;28;20666;-78
2022/01/22 00:19:17;;;;;;;2.47;2.17;;;;;;;4.80;100.00;101384.72;5096612;22;20233;-77
2022/01/22 00:21:45;;;;;;;2.40;2.20;;;;;;;4.81;100.00;101386.47;5077872;28;20217;-77
2022/01/22 00:24:12;;;;;;;2.87;2.40;;;;;;;4.87;100.00;101382.28;5079081;28;20214;-78
2022/01/22 00:26:39;;;;;;;3.30;2.80;;;;;;;4.89;100.00;101378.00;5079711;28;20268;-80
2022/01/22 00:29:06;;;;;;;2.60;2.40;;;;;;;4.84;100.00;101381.38;5079180;28;20597;-77
2022/01/22 00:31:32;;;;;;;2.43;2.23;;;;;;;4.85;100.00;101380.53;5078823;28;20205;-78
2022/01/22 00:33:58;;;;;;;2.80;2.60;;;;;;;4.91;100.00;101370.28;5079481;28;20258;-77
2022/01/22 00:36:25;;;;;;;2.50;2.30;;;;;;;4.87;100.00;101374.53;5079826;28;20212;-77
2022/01/22 00:38:52;;;;;;;2.77;2.33;;;;;;;4.84;100.00;101378.78;5079249;28;20229;-78
2022/01/22 00:41:19;;;;;;;3.47;2.50;;;;;;;4.85;100.00;101368.44;5079527;28;20524;-78
2022/01/22 00:43:46;;;;;;;2.60;2.30;;;;;;;4.87;100.00;101371.94;5083200;28;20671;-79
2022/01/22 00:46:12;;;;;;;2.60;2.37;;;;;;;4.92;100.00;101374.63;5083295;28;20200;-80
2022/01/22 00:48:39;;;;;;;3.63;2.43;;;;;;;4.90;100.00;101384.94;5084161;28;20228;-79
2022/01/22 00:51:05;;;;;;;2.37;2.17;;;;;;;4.89;100.00;101379.75;5075775;28;20190;-79
2022/01/22 00:53:32;;;;;;;2.50;2.30;;;;;;;4.89;100.00;101388.38;5064973;28;20252;-80
2022/01/22 00:56:00;;;;;;;2.40;2.20;;;;;;;4.90;100.00;101384.09;5064235;28;20211;-79
2022/01/22 00:58:26;;;;;;;2.70;2.20;;;;;;;4.91;100.00;101375.47;5064112;28;20221;-80
2022/01/22 01:00:53;;;;;;;2.67;2.10;;;;;;;4.94;100.00;101388.47;5062198;28;20688;-79
2022/01/22 01:03:19;;;;;;;2.20;1.90;;;;;;;4.95;100.00;101388.47;5063475;28;20210;-79
2022/01/22 01:05:45;;;;;;;1.90;1.80;;;;;;;4.88;100.00;101383.19;5065228;28;20199;-80
2022/01/22 01:08:12;;;;;;;2.10;1.90;;;;;;;4.92;100.00;101383.25;5064179;28;20237;-79
2022/01/22 01:10:38;;;;;;;2.00;1.70;;;;;;;4.96;100.00;101391.97;5063131;28;20586;-80
2022/01/22 01:13:06;;;;;;;2.50;1.53;;;;;;;4.98;100.00;101395.44;5062898;28;20229;-79
2022/01/22 01:15:41;;;;;;;1.83;1.57;;;;;;;5.00;100.00;101400.66;5063324;28;20205;-80
2022/01/22 01:34:40;;;;;;;2.17;1.20;;;;;;;4.87;100.00;101397.81;5063629;28;20205;-79
2022/01/22 01:37:06;;;;;;;1.30;1.20;;;;;;;4.83;100.00;101395.13;5064750;28;20259;-79
2022/01/22 01:39:34;;;;;;;1.90;1.20;;;;;;;4.80;100.00;101390.78;5064844;28;20252;-80
2022/01/22 01:42:05;;;;;;;2.03;1.27;;;;;;;4.81;100.00;101396.81;5063468;28;20273;-79
2022/01/22 01:44:33;;;;;;;1.57;1.30;;;;;;;4.80;100.00;101389.88;5065064;28;20209;-80
2022/01/22 01:47:02;;;;;;;1.83;1.27;;;;;;;4.77;100.00;101388.13;5065447;28;20209;-79
2022/01/22 01:49:30;;;;;;;1.40;1.30;;;;;;;4.80;100.00;101389.88;5079706;28;20285;-78
2022/01/22 01:52:00;;;;;;;2.50;1.30;;;;;;;4.83;100.00;101385.66;5066952;28;20201;-80
2022/01/22 01:54:34;;;;;;;1.53;1.20;;;;;;;4.83;100.00;101379.63;5064171;28;20201;-80
2022/01/22 01:59:48;;;;;;;1.30;1.20;;;;;;;4.84;100.00;101394.31;5063791;28;20212;-79
2022/01/22 02:02:15;;;;;;;1.97;1.07;;;;;;;4.87;100.00;101391.78;5064015;28;20210;-79
2022/01/22 02:04:42;;;;;;;1.50;1.10;;;;;;;4.88;100.00;101403.88;5063087;28;20227;-79
2022/01/22 02:07:09;;;;;;;1.07;1.00;;;;;;;4.91;100.00;101415.13;5063437;28;20210;-79
2022/01/22 02:09:36;;;;;;;1.20;1.10;;;;;;;4.91;100.00;101419.44;5062123;28;21351;-79
2022/01/22 02:12:09;;;;;;;1.40;1.30;;;;;;;4.86;100.00;101415.91;5062881;28;20695;-79
2022/01/22 02:25:40;;;;;;;1.57;1.47;;;;;;;4.89;100.00;101427.16;5062143;28;20281;-80
2022/01/22 02:28:06;;;;;;;1.60;1.50;;;;;;;4.87;100.00;101434.03;5061731;28;20221;-80
2022/01/22 02:30:36;;;;;;;2.03;1.80;;;;;;;4.86;100.00;101424.53;5061713;28;20275;-79
2022/01/22 02:33:16;;;;;;;1.47;1.37;;;;;;;4.87;100.00;101421.09;5061869;28;20229;-79
2022/01/22 02:35:49;;;;;;;1.67;1.53;;;;;;;4.96;100.00;101423.00;5062066;28;20672;-79
2022/01/22 02:38:22;;;;;;;2.33;2.13;;;;;;;4.89;100.00;101429.75;5062593;28;20279;-79
2022/01/22 02:40:49;;;;;;;1.80;1.70;;;;;;;4.92;100.00;101434.13;5062982;28;20194;-79
2022/01/22 02:43:18;;;;;;;1.90;1.80;;;;;;;4.95;100.00;101432.47;5061054;28;20210;-79
2022/01/22 02:45:46;;;;;;;2.13;2.00;;;;;;;5.01;100.00;101436.88;5060973;28;20582;-79
2022/01/22 02:48:14;;;;;;;2.03;1.73;;;;;;;5.05;100.00;101446.47;5066308;28;20627;-79
2022/01/22 02:50:41;;;;;;;2.27;1.90;;;;;;;5.00;100.00;101449.81;5074707;28;20203;-80
2022/01/22 02:53:10;;;;;;;2.30;2.10;;;;;;;4.94;100.00;101441.09;5061336;28;20660;-80
2022/01/22 02:55:39;;;;;;;2.70;2.00;;;;;;;4.92;100.00;101440.19;5062165;28;20209;-79
2022/01/22 02:58:06;;;;;;;2.90;2.60;;;;;;;4.99;100.00;101446.34;5061270;28;20770;-80
2022/01/22 03:00:32;;;;;;;2.60;2.40;;;;;;;4.97;100.00;101437.69;5061251;28;20228;-79
2022/01/22 03:02:59;;;;;;;3.10;2.90;;;;;;;5.03;100.00;101431.75;5060507;28;20261;-80
2022/01/22 03:05:26;;;;;;;3.07;2.77;;;;;;;4.99;100.00;101443.75;5061740;28;20259;-80
2022/01/22 03:07:54;;;;;;;3.43;3.10;;;;;;;5.01;100.00;101430.84;5060934;28;20233;-80
2022/01/22 03:10:25;;;;;;;3.23;2.53;;;;;;;5.05;100.00;101432.66;5060482;28;20209;-79
2022/01/22 03:15:52;;;;;;;3.77;3.47;;;;;;;5.00;100.00;101439.47;5058792;28;20246;-79
2022/01/22 03:18:22;;;;;;;3.30;2.90;;;;;;;5.05;100.00;101445.59;5066562;28;20236;-80
2022/01/22 03:21:09;;;;;;;3.23;2.93;;;;;;;4.97;100.00;101446.34;5074542;28;20247;-79
2022/01/22 03:29:09;;;;;;;3.30;3.00;;;;;;;4.95;100.00;101435.03;5061155;28;20251;-80
2022/01/22 03:31:36;;;;;;;4.70;3.40;;;;;;;4.98;100.00;101431.66;5060407;28;20205;-79
2022/01/22 03:34:04;;;;;;;3.43;3.13;;;;;;;5.02;100.00;101433.47;5059149;28;20288;-79
2022/01/22 03:36:33;;;;;;;4.20;3.80;;;;;;;5.05;100.00;101438.69;5060106;28;20205;-80
2022/01/22 03:39:00;;;;;;;4.37;3.97;;;;;;;5.05;100.00;101448.19;5059548;28;20291;-80
2022/01/22 03:41:27;;;;;;;4.53;4.00;;;;;;;5.04;100.00;101443.88;5059228;28;20205;-80
2022/01/22 03:43:54;;;;;;;4.10;3.70;;;;;;;5.05;100.00;101443.88;5059734;28;20201;-79
2022/01/22 03:46:22;;;;;;;4.13;3.67;;;;;;;5.08;100.00;101451.72;5059494;28;20228;-79
2022/01/22 03:48:49;;;;;;;4.10;3.70;;;;;;;5.07;100.00;101449.94;5069782;28;20247;-80
2022/01/22 03:51:16;;;;;;;3.70;3.40;;;;;;;5.06;100.00;101440.47;5068821;28;20201;-80
2022/01/22 03:53:43;;;;;;;4.20;3.53;;;;;;;5.03;100.00;101449.88;5058615;28;20229;-80
2022/01/22 03:56:11;;;;;;;4.33;3.80;;;;;;;4.98;100.00;101452.38;5059977;28;20205;-79
2022/01/22 03:58:41;;;;;;;4.37;3.67;;;;;;;5.02;100.00;101445.56;5059540;28;20236;-80
2022/01/22 04:01:34;;;;;;;4.20;3.80;;;;;;;4.97;100.00;101446.34;5058194;28;20279;-79
2022/01/22 04:04:05;;;;;;;5.40;3.90;;;;;;;5.01;100.00;101442.06;5059259;28;20716;-80
2022/01/22 04:09:17;;;;;;;4.60;3.50;;;;;;;5.05;100.00;101445.59;5059013;28;20309;-80
2022/01/22 04:11:46;;;;;;;3.93;3.53;;;;;;;5.07;100.00;101447.34;5059131;28;20959;-79
2022/01/22 04:14:17;;;;;;;4.53;4.00;;;;;;;5.07;100.00;101439.59;5059779;28;20236;-78
2022/01/22 04:16:57;;;;;;;5.30;3.90;;;;;;;5.01;100.00;101433.44;5059773;28;20205;-79
2022/01/22 04:24:55;;;;;;;6.40;4.77;;;;;;;4.98;100.00;101424.78;5058787;28;20263;-80
2022/01/22 04:27:24;;;;;;;5.20;4.70;;;;;;;4.98;100.00;101418.72;5059256;28;20288;-80
2022/01/22 04:29:51;;;;;;;6.27;4.87;;;;;;;5.00;100.00;101421.34;5058449;28;20206;-80
2022/01/22 04:32:18;;;;;;;5.57;4.33;;;;;;;5.03;100.00;101426.56;5058823;28;20262;-80
2022/01/22 04:34:47;;;;;;;5.70;4.60;;;;;;;5.01;100.00;101418.78;5058686;28;20224;-79
2022/01/22 04:37:14;;;;;;;6.43;4.37;;;;;;;4.93;100.00;101426.38;5059276;28;20205;-79
2022/01/22 04:39:40;;;;;;;7.00;4.90;;;;;;;4.99;100.00;101417.88;5059339;28;20214;-79
2022/01/22 04:42:08;;;;;;;5.90;4.97;;;;;;;4.92;100.00;101416.03;5060997;28;20609;-79
2022/01/22 04:44:40;;;;;;;5.97;4.70;;;;;;;4.96;100.00;101425.59;5060532;28;20202;-79
2022/01/22 04:47:20;;;;;;;7.13;4.83;;;;;;;4.91;100.00;101417.72;5060611;28;20209;-80
2022/01/22 04:52:40;;;;;;;6.63;4.60;;;;;;;5.03;100.00;101414.50;5059275;28;20255;-79
2022/01/22 04:55:08;;;;;;;4.93;4.30;;;;;;;4.99;100.00;101433.41;5059408;28;20224;-80
2022/01/22 04:57:36;;;;;;;6.67;4.87;;;;;;;5.00;100.00;101432.56;5059285;28;20641;-79
2022/01/22 05:00:05;;;;;;;8.27;4.93;;;;;;;5.03;100.00;101422.25;5058248;28;20213;-80
2022/01/22 05:02:32;;;;;;;5.70;5.10;;;;;;;5.00;100.00;101432.56;5061061;28;20205;-80
2022/01/22 05:05:00;;;;;;;8.57;5.47;;;;;;;5.01;100.00;101434.31;5061993;28;20206;-79
2022/01/22 05:07:26;;;;;;;6.20;5.30;;;;;;;5.01;100.00;101436.88;5061559;28;20206;-79
2022/01/22 05:09:52;;;;;;;8.13;5.17;;;;;;;5.05;100.00;101441.28;5061566;28;20734;-80
2022/01/22 05:12:19;;;;;;;6.63;5.07;;;;;;;5.08;100.00;101454.28;5061639;28;20233;-80
2022/01/22 05:14:45;;;;;;;7.50;4.77;;;;;;;5.12;100.00;101437.13;5061418;28;20232;-80
2022/01/22 05:17:12;;;;;;;6.30;4.70;;;;;;;5.08;100.00;101451.72;5061802;28;20670;-79
2022/01/22 05:19:47;;;;;;;9.83;5.00;;;;;;;5.10;100.00;101451.75;5078197;28;20203;-79
2022/01/22 05:22:28;;;;;;;7.70;5.03;;;;;;;5.09;100.00;101447.41;5063017;28;20288;-79
2022/01/22 05:24:59;;;;;;;6.63;5.00;;;;;;;5.06;100.00;101448.22;5062366;28;20208;-79
2022/01/22 05:27:44;;;;;;;8.50;4.87;;;;;;;4.98;100.00;101454.97;5062315;28;20288;-80
2022/01/22 05:30:34;;;;;;;6.43;3.77;;;;;;;5.04;100.00;101460.25;5060948;28;20205;-79
2022/01/22 05:33:13;;;;;;;6.90;4.50;;;;;;;5.10;100.00;101464.69;5061279;28;20207;-80
2022/01/22 05:38:25;;;;;;;7.00;4.43;;;;;;;5.07;100.00;101464.59;5061552;28;20713;-80
2022/01/22 05:40:51;;;;;;;5.60;3.90;;;;;;;5.03;100.00;101460.22;5060801;28;20696;-79
2022/01/22 05:43:18;;;;;;;6.20;4.20;;;;;;;5.07;100.00;101460.31;5059405;28;20262;-80
2022/01/22 05:45:44;;;;;;;5.87;4.07;;;;;;;5.03;100.00;101468.84;5060574;28;20209;-80
2022/01/22 05:48:10;;;;;;;8.53;5.17;;;;;;;5.09;100.00;101478.44;5066045;28;20258;-80
2022/01/22 05:50:47;;;;;;;7.13;5.20;;;;;;;5.07;100.00;101482.72;5074050;28;20193;-80
2022/01/22 05:53:28;;;;;;;9.33;5.53;;;;;;;5.13;100.00;101488.91;5055965;28;20623;-79
2022/01/22 06:01:24;;;;;;;6.13;4.60;;;;;;;5.18;100.00;101496.75;5060165;28;20212;-80
2022/01/22 06:03:50;;;;;;;7.70;4.77;;;;;;;5.13;100.00;101496.69;5057482;28;20198;-80
2022/01/22 06:06:16;;;;;;;5.93;3.97;;;;;;;5.12;100.00;101500.09;5060072;28;20268;-80
2022/01/22 06:08:47;;;;;;;6.20;3.80;;;;;;;5.09;100.00;101504.31;5060344;28;20225;-80
2022/01/22 06:11:21;;;;;;;4.13;3.07;;;;;;;5.20;100.00;101507.16;5059491;28;20202;-80
2022/01/22 06:13:48;;;;;;;4.30;3.17;;;;;;;5.13;100.00;101514.78;5059006;28;20234;-80
2022/01/22 06:16:17;;;;;;;4.63;3.27;;;;;;;5.12;100.00;101523.38;5060156;28;20386;-80
2022/01/22 06:18:45;;;;;;;6.23;4.90;;;;;;;5.23;100.00;101526.19;5093104;22;20222;-77
2022/01/22 06:21:11;;;;;;;4.20;2.70;;;;;;;5.24;100.00;101519.31;5089091;28;20205;-79
2022/01/22 06:23:39;;;;;;;4.20;2.83;;;;;;;5.20;100.00;101530.44;5094579;28;20578;-79
2022/01/22 06:26:06;;;;;;;6.13;3.00;;;;;;;5.23;100.00;101533.94;5095238;28;20204;-78
2022/01/22 06:28:34;;;;;;;7.73;3.87;;;;;;;5.20;100.00;101533.91;5095345;28;20273;-78
2022/01/22 06:31:03;;;;;;;6.40;3.90;;;;;;;5.26;100.00;101549.56;5094098;28;20222;-79
2022/01/22 06:33:30;;;;;;;8.73;3.57;;;;;;;5.25;100.00;101558.19;5094875;28;20569;-78
2022/01/22 06:35:56;;;;;;;42.73;4.07;;;;;;;5.21;100.00;101558.06;5095129;28;20266;-78
2022/01/22 06:38:23;;;;;;;17.60;4.30;;;;;;;5.24;100.00;101551.25;5094501;28;20269;-78
2022/01/22 06:43:34;;;;;;;4.90;3.47;;;;;;;5.21;100.00;101569.28;5095158;28;20249;-78
2022/01/22 06:46:00;;;;;;;4.00;3.07;;;;;;;5.24;100.00;101571.09;5094720;28;20257;-78
2022/01/22 06:48:27;;;;;;;4.63;3.30;;;;;;;5.25;100.00;101578.88;5093021;28;20633;-76
2022/01/22 06:50:54;;;;;;;4.77;3.30;;;;;;;5.25;100.00;101573.72;5094256;28;20224;-79
2022/01/22 06:53:20;;;;;;;4.10;3.37;;;;;;;5.22;100.00;101577.94;5075964;28;20208;-79
2022/01/22 06:55:53;;;;;;;3.50;2.70;;;;;;;5.26;100.00;101580.63;5075578;28;20205;-80
2022/01/22 06:58:20;;;;;;;3.93;2.70;;;;;;;5.27;100.00;101590.16;5074733;28;20212;-78
2022/01/22 07:00:47;;;;;;;3.20;2.40;;;;;;;5.30;100.00;101592.78;5073927;28;20254;-80
2022/01/22 07:03:14;;;;;;;3.50;3.10;;;;;;;5.29;100.00;101592.75;5073856;28;20235;-78
2022/01/22 07:05:40;;;;;;;4.50;2.77;;;;;;;5.30;100.00;101597.09;5073668;28;20248;-79
2022/01/22 07:08:07;;;;;;;5.40;2.97;;;;;;;5.31;100.00;101602.31;5074611;28;20783;-80
2022/01/22 07:10:33;;;;;;;5.60;3.23;;;;;;;5.32;100.00;101604.03;5074107;28;20209;-80
2022/01/22 07:12:59;;;;;;;4.90;3.70;;;;;;;5.28;100.00;101606.53;5073771;28;20236;-80
2022/01/22 07:15:26;;;;;;;4.43;2.70;;;;;;;5.30;100.00;101620.41;5073918;28;20237;-78
2022/01/22 07:17:55;;;;;;;4.40;3.23;;;;;;;5.29;100.00;101631.56;5073770;28;20212;-77
2022/01/22 07:20:27;;;;;;;3.37;2.57;;;;;;;5.33;100.00;101628.22;5090210;28;20314;-79
2022/01/22 07:23:00;;;;;;;5.23;3.03;;;;;;;5.31;100.00;101629.91;5078195;28;20547;-79
2022/01/22 07:25:28;;;;;;;4.83;3.33;;;;;;;5.32;100.00;101629.94;5073102;28;20197;-79
2022/01/22 07:27:55;;;;;;;3.23;2.90;;;;;;;5.34;100.00;101635.16;5074440;28;20201;-79
2022/01/22 07:30:21;;;;;;;3.37;3.07;;;;;;;5.34;100.00;101642.91;5073639;28;20233;-79
2022/01/22 07:32:47;;;;;;;4.07;3.47;;;;;;;5.37;100.00;101642.97;5074176;28;20204;-79
2022/01/22 07:35:18;;;;;;;3.27;2.97;;;;;;;5.34;100.00;101646.38;5073765;28;20226;-78
2022/01/22 07:37:45;;;;;;;3.30;2.90;;;;;;;5.37;100.00;101654.22;5074138;28;20239;-78
2022/01/22 07:40:12;;;;;;;3.40;2.60;;;;;;;5.44;100.00;101656.94;5072807;28;20420;-79
2022/01/22 07:42:40;;;;;;;7.90;3.60;;;;;;;5.28;100.00;101664.38;5072317;28;20204;-78
2022/01/22 07:45:07;;;;;;;5.13;4.63;;;;;;;5.34;100.00;101661.03;5077763;28;20196;-78
2022/01/22 07:47:34;;;;;;;8.07;5.40;;;;;;;5.36;100.00;101662.81;5086809;28;20252;-79
2022/01/22 07:50:00;;;;;;;6.97;6.03;;;;;;;5.34;100.00;101667.09;5092254;28;20710;-79
2022/01/22 07:52:28;;;;;;;6.97;5.87;;;;;;;5.36;100.00;101685.25;5093124;28;20203;-79
2022/01/22 07:54:54;;;;;;;8.93;6.20;;;;;;;5.31;100.00;101679.09;5092664;28;20218;-79
2022/01/22 07:57:21;;;;;;;8.03;6.47;;;;;;;5.38;100.00;101686.16;5093707;28;20222;-79
2022/01/22 07:59:47;;;;;;;7.93;6.20;;;;;;;5.27;100.00;101685.03;5092940;28;20628;-77
2022/01/22 08:02:14;;;;;;;10.20;7.07;;;;;;;5.27;100.00;101685.03;5094369;28;20200;-78
2022/01/22 08:04:41;;;;;;;9.67;6.90;;;;;;;5.30;100.00;101685.13;5093863;28;20207;-78
2022/01/22 08:07:08;;;;;;;8.63;6.90;;;;;;;5.32;100.00;101684.31;5090771;28;20208;-78
2022/01/22 08:09:36;;;;;;;10.23;6.97;;;;;;;5.36;100.00;101693.03;5090543;28;20224;-77
2022/01/22 08:12:03;;;;;;;7.87;6.90;;;;;;;5.34;100.00;101694.69;5092947;28;20192;-77
2022/01/22 08:14:29;;;;;;;8.47;6.70;;;;;;;5.26;100.00;101701.41;5091572;28;20224;-77
2022/01/22 08:16:56;;;;;;;10.00;7.77;;;;;;;5.24;100.00;101695.34;5092150;28;20200;-79
2022/01/22 08:19:23;;;;;;;8.70;7.20;;;;;;;5.21;100.00;101693.53;5090721;28;20285;-77
2022/01/22 08:21:49;;;;;;;8.97;6.60;;;;;;;5.27;100.00;101692.81;5084349;28;20548;-78
2022/01/22 08:24:18;;;;;;;11.15;8.90;;;;;;;5.29;100.00;101696.28;5092562;28;20458;-79
2022/01/22 08:26:49;;;;;;;9.83;7.40;;;;;;;5.31;100.00;101692.94;5089965;28;20716;-78
2022/01/22 08:29:16;;;;;;;10.37;7.33;;;;;;;5.32;100.00;101696.38;5090940;28;20231;-78
2022/01/22 08:31:53;;;;;;;9.07;7.37;;;;;;;5.36;100.00;101700.78;5092189;28;20250;-79
2022/01/22 08:37:04;;;;;;;8.90;6.80;;;;;;;5.31;100.00;101705.88;5090819;28;20577;-77
2022/01/22 08:39:30;;;;;;;8.80;6.33;;;;;;;5.38;100.00;101715.50;5094306;28;20222;-77
2022/01/22 08:41:58;;;;;;;8.03;6.67;;;;;;;5.37;100.00;101715.47;5095476;28;20208;-77
2022/01/22 08:44:24;;;;;;;8.53;5.93;;;;;;;5.32;100.00;101730.03;5095190;28;20206;-77
2022/01/22 08:46:51;;;;;;;8.70;6.03;;;;;;;5.28;100.00;101721.31;5095125;28;20205;-78
2022/01/22 08:49:17;;;;;;;8.87;6.00;;;;;;;5.21;100.00;101714.25;5094691;28;20607;-76
2022/01/22 08:51:44;;;;;;;9.07;6.70;;;;;;;5.31;100.00;101717.91;5088538;28;20215;-77
2022/01/22 08:54:11;;;;;;;11.90;6.73;;;;;;;5.33;100.00;101713.66;5075202;28;20205;-76
2022/01/22 08:56:39;;;;;;;17.73;7.03;;;;;;;5.37;100.00;101715.47;5075114;28;20705;-79
2022/01/22 08:59:08;;;;;;;8.43;6.70;;;;;;;5.32;100.00;101715.38;5075865;28;20256;-76
2022/01/22 09:01:35;;;;;;;10.13;6.50;;;;;;;5.34;100.00;101723.19;5074498;28;20248;-77
2022/01/22 09:04:02;;;;;;;10.07;5.57;;;;;;;5.33;100.00;101729.19;5074031;28;20212;-76
2022/01/22 09:06:28;;;;;;;11.57;6.37;;;;;;;5.33;100.00;101726.59;5074364;28;20206;-77
2022/01/22 09:09:04;;;;;;;8.93;5.73;;;;;;;5.36;100.00;101732.72;5074479;28;20277;-76
2022/01/22 09:11:30;;;;;;;7.40;5.50;;;;;;;5.41;100.00;101729.38;5073937;28;20211;-76
2022/01/22 09:13:57;;;;;;;7.03;4.67;;;;;;;5.39;100.00;101729.31;5074300;28;20683;-77
2022/01/22 09:16:24;;;;;;;6.67;4.80;;;;;;;5.44;100.00;101735.50;5074121;28;20595;-76
2022/01/22 09:18:53;;;;;;;7.17;4.53;;;;;;;5.48;100.00;101739.03;5077944;28;20290;-77
2022/01/22 09:21:19;;;;;;;6.60;4.47;;;;;;;5.45;100.00;101733.78;5090401;28;20223;-76
2022/01/22 09:23:46;;;;;;;4.10;3.63;;;;;;;5.41;100.00;101738.03;5085365;28;20208;-79
2022/01/22 09:26:12;;;;;;;5.50;4.10;;;;;;;5.38;100.00;101740.53;5085414;28;20328;-78
2022/01/22 09:28:39;;;;;;;4.30;3.47;;;;;;;5.41;100.00;101743.22;5085314;28;20220;-77
2022/01/22 09:31:05;;;;;;;8.87;4.77;;;;;;;5.34;100.00;101737.00;5085048;28;20212;-77
2022/01/22 09:33:33;;;;;;;5.83;3.97;;;;;;;5.38;100.00;101740.53;5084489;28;20211;-75
2022/01/22 09:35:59;;;;;;;7.07;5.10;;;;;;;5.41;100.00;101738.03;5084199;28;20816;-77
2022/01/22 09:38:26;;;;;;;7.23;5.23;;;;;;;5.44;100.00;101743.25;5085110;28;20277;-75
2022/01/22 09:40:52;;;;;;;5.87;4.03;;;;;;;5.33;100.00;101749.91;5084708;28;20517;-76
2022/01/22 09:43:19;;;;;;;6.97;3.90;;;;;;;5.28;100.00;101746.34;5084740;28;20213;-77
2022/01/22 09:45:45;;;;;;;6.23;3.97;;;;;;;5.33;100.00;101760.25;5084848;28;20631;-76
2022/01/22 09:48:12;;;;;;;6.27;4.50;;;;;;;5.39;100.00;101760.41;5084034;28;20856;-76
2022/01/22 09:50:39;;;;;;;5.03;4.23;;;;;;;5.41;100.00;101763.03;5084012;28;20196;-77
2022/01/22 09:53:06;;;;;;;7.20;3.67;;;;;;;5.53;100.00;101771.97;5084048;28;20692;-77
2022/01/22 09:55:33;;;;;;;7.23;5.23;;;;;;;5.53;100.00;101781.44;5085168;28;20224;-77
2022/01/22 09:57:59;;;;;;;6.57;5.90;;;;;;;5.52;100.00;101790.94;5083743;28;20216;-75
2022/01/22 10:00:27;;;;;;;7.13;5.13;;;;;;;5.60;100.00;101801.47;5084341;28;20589;-75
2022/01/22 10:02:55;;;;;;;10.50;5.20;;;;;;;5.62;100.00;101809.28;5084105;28;21237;-80
2022/01/22 10:05:27;;;;;;;4.33;3.93;;;;;;;5.55;100.00;101829.88;5084375;28;20248;-77
2022/01/22 10:08:15;;;;;;;5.17;4.03;;;;;;;5.60;100.00;101829.09;5084284;28;20206;-77
2022/01/22 10:10:42;;;;;;;4.03;3.63;;;;;;;5.65;100.00;101843.91;5083567;28;20277;-77
2022/01/22 10:13:08;;;;;;;6.30;3.67;;;;;;;5.59;100.00;101851.53;5084432;28;20242;-77
2022/01/22 10:15:35;;;;;;;4.80;4.00;;;;;;;5.65;100.00;101858.56;5084902;28;20219;-76
2022/01/22 10:18:03;;;;;;;4.27;3.67;;;;;;;5.66;100.00;101879.31;5084304;28;20239;-80
2022/01/22 10:20:36;;;;;;;4.37;3.73;;;;;;;5.69;100.00;101889.78;5082512;28;20234;-78
2022/01/22 10:23:09;;;;;;;4.23;3.50;;;;;;;5.70;100.00;101906.19;5083729;28;20794;-77
2022/01/22 10:25:40;;;;;;;3.50;3.20;;;;;;;5.69;100.00;101915.69;5084855;28;20208;-78
2022/01/22 10:28:09;;;;;;;3.60;3.30;;;;;;;5.66;100.00;101938.91;5085400;28;20263;-77
2022/01/22 10:30:40;;;;;;;4.70;4.30;;;;;;;5.74;100.00;101939.97;5085157;28;20204;-80
2022/01/22 10:33:28;;;;;;;4.43;4.03;;;;;;;5.76;100.00;101947.78;5084852;28;20205;-79
2022/01/22 10:35:55;;;;;;;5.37;3.70;;;;;;;5.76;100.00;101960.75;5085424;28;20220;-79
2022/01/22 10:38:22;;;;;;;5.53;3.87;;;;;;;5.70;100.00;101977.00;5085702;28;20204;-79
2022/01/22 10:40:55;;;;;;;4.47;4.07;;;;;;;5.73;100.00;101953.78;5085809;28;20605;-78
2022/01/22 10:43:28;;;;;;;4.07;3.50;;;;;;;5.86;100.00;101959.25;5085840;28;20338;-78
2022/01/22 10:46:11;;;;;;;3.40;3.10;;;;;;;5.88;100.00;101953.28;5086286;28;20285;-77
2022/01/22 10:48:39;;;;;;;3.77;3.33;;;;;;;5.85;100.00;101958.41;5083684;28;20232;-78
2022/01/22 10:51:11;;;;;;;3.77;3.47;;;;;;;5.91;100.00;101950.78;5083830;28;20208;-80
2022/01/22 10:53:43;;;;;;;4.57;3.97;;;;;;;5.92;100.00;101951.63;5083814;28;20789;-78
2022/01/22 10:56:11;;;;;;;4.13;3.27;;;;;;;5.95;100.00;101972.50;5083101;28;20226;-77
2022/01/22 10:58:51;;;;;;;5.30;3.47;;;;;;;6.03;100.00;101976.16;5082922;28;20643;-77
2022/01/22 11:01:18;;;;;;;4.30;3.37;;;;;;;6.06;100.00;101975.34;5083308;28;20227;-78
2022/01/22 11:03:44;;;;;;;3.53;3.23;;;;;;;6.06;100.00;101980.53;5082719;28;20736;-76
2022/01/22 11:06:25;;;;;;;3.00;2.80;;;;;;;5.89;100.00;101969.72;5086944;28;20235;-76
2022/01/22 11:08:55;;;;;;;2.73;2.30;;;;;;;5.84;100.00;101960.94;5085257;28;20232;-77
2022/01/22 11:11:21;;;;;;;2.17;1.97;;;;;;;5.74;100.00;101949.47;5086467;28;20204;-75
2022/01/22 11:13:47;;;;;;;2.47;2.20;;;;;;;5.74;100.00;101936.50;5084549;28;20237;-77
2022/01/22 11:16:15;;;;;;;1.97;1.87;;;;;;;5.82;100.00;101934.13;5084030;28;20441;-77
2022/01/22 11:18:44;;;;;;;1.30;1.20;;;;;;;5.82;100.00;101947.94;5083721;28;20227;-77
2022/01/22 11:21:11;;;;;;;1.23;1.10;;;;;;;5.87;100.00;101940.31;5081379;28;20228;-77
2022/01/22 11:23:38;;;;;;;1.63;1.53;;;;;;;5.88;100.00;101932.53;5082440;28;20211;-74
2022/01/22 11:26:07;;;;;;;2.10;1.90;;;;;;;5.85;100.00;101908.28;5082772;28;20242;-77
2022/01/22 11:28:35;;;;;;;2.47;2.00;;;;;;;5.77;100.00;101875.28;5081309;28;20783;-78
2022/01/22 11:31:03;;;;;;;2.13;2.00;;;;;;;5.77;100.00;101858.88;5081045;28;20215;-75
2022/01/22 11:33:35;;;;;;;1.77;1.67;;;;;;;5.83;100.00;101843.47;5082399;28;20207;-77
2022/01/22 11:36:03;;;;;;;2.70;2.50;;;;;;;5.68;100.00;101841.38;5082510;28;20229;-74
2022/01/22 11:38:34;;;;;;;2.83;2.63;;;;;;;5.64;100.00;101825.72;5083009;28;20219;-78
2022/01/22 11:41:10;;;;;;;2.23;2.03;;;;;;;5.76;100.00;101826.03;5082307;28;20585;-75
2022/01/22 11:43:56;;;;;;;2.60;2.40;;;;;;;5.73;100.00;101813.88;5082862;28;20483;-75
2022/01/22 11:46:28;;;;;;;3.17;2.40;;;;;;;5.67;100.00;101811.16;5082676;28;20199;-78
2022/01/22 11:49:10;;;;;;;2.50;2.30;;;;;;;5.49;100.00;101801.22;5081944;28;20224;-75
2022/01/22 11:51:37;;;;;;;3.10;2.80;;;;;;;5.48;100.00;101796.88;5082399;28;20666;-75
2022/01/22 11:54:05;;;;;;;5.13;4.73;;;;;;;5.45;100.00;101794.22;5082660;28;20204;-76
2022/01/22 11:56:43;;;;;;;3.47;3.00;;;;;;;5.57;100.00;101798.81;5082449;28;20223;-74
2022/01/22 11:59:18;;;;;;;4.17;3.80;;;;;;;5.58;100.00;101795.38;5082104;28;20231;-78
2022/01/22 12:02:03;;;;;;;3.43;3.03;;;;;;;5.44;100.00;101784.69;5082450;28;20231;-76
2022/01/22 12:04:49;;;;;;;3.20;2.90;;;;;;;5.40;100.00;101780.28;5082195;28;20211;-77
2022/01/22 12:07:18;;;;;;;3.33;3.03;;;;;;;5.42;100.00;101786.38;5082725;28;20203;-76
2022/01/22 12:09:54;;;;;;;3.60;3.17;;;;;;;5.45;100.00;101783.88;5082286;28;20250;-77
2022/01/22 12:15:15;;;;;;;2.33;2.13;;;;;;;5.46;100.00;101783.00;5086282;28;20215;-77
2022/01/22 12:18:00;;;;;;;2.87;2.60;;;;;;;5.50;100.00;101784.84;5086654;28;20205;-77
2022/01/22 12:23:55;;;;;;;2.60;2.30;;;;;;;5.55;100.00;101801.38;5078670;28;20238;-77
2022/01/22 12:26:45;;;;;;;2.60;2.23;;;;;;;5.61;100.00;101805.81;5086016;28;20196;-77
2022/01/22 12:29:38;;;;;;;2.90;2.60;;;;;;;5.61;100.00;101815.28;5086127;28;20235;-77
2022/01/22 12:32:25;;;;;;;4.10;3.70;;;;;;;5.65;100.00;101823.19;5082761;28;20200;-76
2022/01/22 12:35:15;;;;;;;2.97;2.67;;;;;;;5.67;100.00;101830.97;5085681;28;20261;-78
2022/01/22 12:38:02;;;;;;;2.77;2.10;;;;;;;5.78;100.00;101822.59;5085919;28;20237;-78
2022/01/22 12:40:34;;;;;;;2.20;2.00;;;;;;;5.85;100.00;101836.59;5085488;28;20227;-77
2022/01/22 12:43:12;;;;;;;2.63;2.43;;;;;;;5.86;100.00;101843.53;5085603;28;20735;-76
2022/01/22 12:45:44;;;;;;;2.00;1.80;;;;;;;5.91;100.00;101866.97;5085699;28;20382;-78